Time;durP1;ratioP1;P1;durP2;ratioP2;P2;SDS_P1;SDS_P2;PMS_P1;PMS_P2;Temp;Humidity;BMP_temperature;BMP_pressure;BME280_temperature;BME280_humidity;BME280_pressure;Samples;Min_cycle;Max_cycle;Signal;HPM_P1;HPM_P2
2023/12/13 00:00:37;;;;;;;5.60;5.30;;;;;;;4.93;89.82;94639.75;4954096;29;20178;-68
2023/12/13 00:03:03;;;;;;;3.10;2.93;;;;;;;5.00;90.07;94654.69;4953707;28;20181;-68
2023/12/13 00:05:29;;;;;;;23.17;4.93;;;;;;;4.96;90.87;94645.59;4953488;28;20192;-68
2023/12/13 00:07:54;;;;;;;13.00;9.10;;;;;;;4.93;90.64;94633.72;4953466;29;20727;-68
2023/12/13 00:10:20;;;;;;;6.67;3.40;;;;;;;4.93;91.26;94626.72;4953464;28;20178;-68
2023/12/13 00:12:45;;;;;;;1.30;1.30;;;;;;;4.97;91.59;94634.19;4953590;28;20712;-68
2023/12/13 00:15:11;;;;;;;1.33;1.33;;;;;;;4.98;91.54;94654.06;4953259;29;20174;-69
2023/12/13 00:17:37;;;;;;;1.97;1.93;;;;;;;5.00;90.80;94659.91;4953455;28;20210;-68
2023/12/13 00:20:05;;;;;;;6.70;6.33;;;;;;;5.01;89.93;94646.69;4953586;29;20182;-69
2023/12/13 00:22:31;;;;;;;4.43;4.13;;;;;;;4.94;89.71;94651.00;4953540;28;20285;-68
2023/12/13 00:24:57;;;;;;;12.97;11.60;;;;;;;4.83;89.88;94636.66;4953506;28;20875;-68
2023/12/13 00:27:22;;;;;;;1.30;1.30;;;;;;;4.98;89.71;94648.84;4953440;28;20230;-68
2023/12/13 00:29:48;;;;;;;2.87;2.80;;;;;;;5.02;89.69;94640.47;4953276;28;20175;-68
2023/12/13 00:32:14;;;;;;;3.73;3.43;;;;;;;5.05;89.77;94649.75;4953095;29;20170;-69
2023/12/13 00:34:40;;;;;;;1.80;1.70;;;;;;;4.91;90.07;94609.66;4953178;28;20236;-68
2023/12/13 00:37:05;;;;;;;1.70;1.47;;;;;;;5.11;90.20;94622.91;4952993;28;20213;-68
2023/12/13 00:39:32;;;;;;;4.87;3.07;;;;;;;5.04;90.07;94628.06;4953072;29;20197;-68
2023/12/13 00:41:57;;;;;;;1.40;1.40;;;;;;;4.94;90.97;94628.34;4953124;28;20202;-68
2023/12/13 00:44:23;;;;;;;1.43;1.33;;;;;;;4.94;91.32;94633.56;4952997;29;20739;-69
2023/12/13 00:46:48;;;;;;;1.63;1.53;;;;;;;4.81;91.18;94609.94;4953138;29;20181;-68
2023/12/13 00:49:14;;;;;;;0.90;0.90;;;;;;;4.94;90.98;94624.91;4953043;29;20221;-69
2023/12/13 00:51:40;;;;;;;0.40;0.40;;;;;;;4.98;90.86;94615.75;4951566;29;20182;-69
2023/12/13 00:54:05;;;;;;;9.10;8.57;;;;;;;5.01;90.12;94615.41;4952829;28;20177;-68
2023/12/13 00:56:31;;;;;;;4.00;3.67;;;;;;;5.05;90.25;94603.59;4952854;29;20261;-68
2023/12/13 00:58:57;;;;;;;4.57;4.23;;;;;;;5.03;90.34;94596.94;4952723;28;20256;-69
2023/12/13 01:01:23;;;;;;;2.03;1.93;;;;;;;5.03;90.50;94586.50;4951982;28;20174;-68
2023/12/13 01:03:49;;;;;;;3.23;3.13;;;;;;;5.05;90.90;94598.38;4952867;28;20671;-68
2023/12/13 01:06:14;;;;;;;0.53;0.53;;;;;;;5.08;91.08;94584.97;4952794;29;20200;-68
2023/12/13 01:08:40;;;;;;;1.43;1.43;;;;;;;5.10;90.86;94588.19;4952542;28;20178;-68
2023/12/13 01:11:09;;;;;;;0.83;0.83;;;;;;;5.14;91.06;94581.63;4952452;29;20644;-68
2023/12/13 01:13:35;;;;;;;10.30;4.80;;;;;;;5.12;91.20;94578.38;4952620;28;20187;-68
2023/12/13 01:16:00;;;;;;;0.67;0.67;;;;;;;5.13;90.84;94573.97;4952464;28;20214;-69
2023/12/13 01:18:26;;;;;;;3.10;2.97;;;;;;;5.14;90.81;94559.94;4952373;28;20260;-68
2023/12/13 01:20:51;;;;;;;0.63;0.63;;;;;;;5.13;90.77;94553.13;4952346;29;20186;-68
2023/12/13 01:23:17;;;;;;;3.83;3.63;;;;;;;5.20;91.21;94549.56;4952337;29;20178;-68
2023/12/13 01:25:42;;;;;;;2.83;2.70;;;;;;;5.26;90.70;94548.84;4952547;29;20269;-68
2023/12/13 01:28:08;;;;;;;19.23;8.87;;;;;;;5.25;90.59;94555.06;4952462;28;20178;-69
2023/12/13 01:30:33;;;;;;;69.27;20.77;;;;;;;5.20;90.86;94554.78;4952415;29;20170;-69
2023/12/13 01:32:58;;;;;;;1.33;1.33;;;;;;;5.16;91.23;94558.78;4951180;29;20209;-69
2023/12/13 01:35:24;;;;;;;4.13;3.93;;;;;;;5.16;91.49;94564.00;4952145;29;20175;-68
2023/12/13 01:37:49;;;;;;;4.00;3.80;;;;;;;5.26;91.39;94582.78;4952136;29;20289;-69
2023/12/13 01:40:15;;;;;;;0.70;0.70;;;;;;;5.11;91.20;94552.47;4952218;28;20702;-68
2023/12/13 01:42:40;;;;;;;8.00;6.47;;;;;;;5.26;91.08;94569.72;4952236;28;20477;-69
2023/12/13 01:45:08;;;;;;;8.30;7.63;;;;;;;5.29;90.95;94573.75;4952405;28;20182;-69
2023/12/13 01:47:33;;;;;;;10.37;6.73;;;;;;;5.28;91.22;94556.47;4952459;28;20190;-68
2023/12/13 01:49:59;;;;;;;5.10;4.70;;;;;;;5.40;90.88;94548.97;4957072;28;20220;-68
2023/12/13 01:52:24;;;;;;;2.80;2.70;;;;;;;5.45;90.92;94544.78;4971412;28;20197;-68
2023/12/13 01:54:51;;;;;;;4.57;4.27;;;;;;;5.45;90.77;94539.56;4971531;28;20617;-69
2023/12/13 01:57:16;;;;;;;0.53;0.53;;;;;;;5.47;90.54;94542.81;4971346;28;20193;-69
2023/12/13 01:59:42;;;;;;;1.27;1.27;;;;;;;5.39;90.42;94521.25;4971289;28;20251;-68
2023/12/13 02:02:09;;;;;;;5.37;5.07;;;;;;;5.49;90.77;94530.38;4971230;28;20181;-68
2023/12/13 02:04:35;;;;;;;6.73;6.10;;;;;;;5.45;90.58;94528.34;4971370;28;20174;-68
2023/12/13 02:07:01;;;;;;;11.80;7.07;;;;;;;5.40;91.14;94518.47;4971232;28;20174;-69
2023/12/13 02:09:27;;;;;;;4.00;3.80;;;;;;;5.43;90.75;94510.28;4971274;28;20173;-69
2023/12/13 02:11:52;;;;;;;0.87;0.87;;;;;;;5.46;90.72;94503.84;4971673;28;20541;-69
2023/12/13 02:14:19;;;;;;;32.80;11.37;;;;;;;5.28;90.63;94478.19;4975269;28;20285;-69
2023/12/13 02:16:45;;;;;;;5.33;4.93;;;;;;;5.35;91.29;94486.91;4974857;28;20711;-69
2023/12/13 02:19:10;;;;;;;1.33;1.33;;;;;;;5.38;91.67;94480.50;4974821;28;20261;-69
2023/12/13 02:21:37;;;;;;;4.43;4.17;;;;;;;5.38;91.53;94478.69;4967654;28;20237;-69
2023/12/13 02:24:07;;;;;;;11.67;5.33;;;;;;;5.44;91.60;94495.41;4955518;28;20174;-69
2023/12/13 02:26:39;;;;;;;6.43;2.83;;;;;;;5.46;91.75;94507.25;4954397;29;20189;-69
2023/12/13 02:29:05;;;;;;;3.13;2.93;;;;;;;5.46;91.68;94504.66;4955702;28;20265;-68
2023/12/13 02:31:31;;;;;;;4.53;2.10;;;;;;;5.47;91.45;94503.66;4955432;28;20322;-69
2023/12/13 02:33:56;;;;;;;0.50;0.50;;;;;;;5.51;91.33;94510.13;4955390;28;20178;-69
2023/12/13 02:36:22;;;;;;;1.23;1.23;;;;;;;5.47;91.45;94476.75;4955430;29;20181;-69
2023/12/13 02:38:47;;;;;;;2.37;2.27;;;;;;;5.48;91.17;94458.28;4955095;28;20210;-69
2023/12/13 02:41:13;;;;;;;3.07;2.87;;;;;;;5.61;91.13;94470.66;4955191;29;20268;-68
2023/12/13 02:43:38;;;;;;;0.60;0.60;;;;;;;5.51;91.05;94446.69;4955171;29;20182;-68
2023/12/13 02:46:04;;;;;;;9.20;2.70;;;;;;;5.57;91.02;94456.34;4955103;29;20175;-68
2023/12/13 02:48:29;;;;;;;1.53;1.53;;;;;;;5.55;90.98;94474.81;4955232;29;20230;-69
2023/12/13 02:50:55;;;;;;;3.73;3.53;;;;;;;5.52;90.80;94474.41;4955224;28;20182;-68
2023/12/13 02:53:21;;;;;;;1.63;1.53;;;;;;;5.50;90.55;94479.00;4955170;29;20179;-69
2023/12/13 02:55:47;;;;;;;1.33;1.33;;;;;;;5.51;90.99;94485.84;4954988;28;20193;-69
2023/12/13 02:58:12;;;;;;;0.63;0.63;;;;;;;5.37;91.08;94458.81;4955021;28;20198;-69
2023/12/13 03:00:38;;;;;;;49.73;44.73;;;;;;;5.48;91.34;94480.97;4954961;28;20178;-69
2023/12/13 03:03:04;;;;;;;2.60;2.50;;;;;;;5.50;91.36;94479.00;4954896;28;20185;-69
2023/12/13 03:05:29;;;;;;;1.67;1.57;;;;;;;5.55;91.81;94485.25;4953444;28;20624;-69
2023/12/13 03:07:55;;;;;;;0.60;0.60;;;;;;;5.52;91.76;94458.75;4954639;28;20180;-69
2023/12/13 03:10:20;;;;;;;4.40;2.77;;;;;;;5.68;91.65;94481.94;4954779;28;20679;-69
2023/12/13 03:12:46;;;;;;;6.10;5.70;;;;;;;5.75;91.31;94466.31;4954677;28;20649;-69
2023/12/13 03:15:11;;;;;;;11.93;9.40;;;;;;;5.77;91.15;94470.38;4954327;29;20621;-70
2023/12/13 03:17:37;;;;;;;2.07;1.97;;;;;;;5.81;91.16;94478.59;4954577;29;20767;-69
2023/12/13 03:20:03;;;;;;;2.60;2.23;;;;;;;5.80;90.42;94479.59;4954512;29;20553;-69
2023/12/13 03:22:28;;;;;;;2.10;2.00;;;;;;;5.76;90.20;94497.47;4954359;29;20170;-69
2023/12/13 03:24:56;;;;;;;0.83;0.83;;;;;;;5.73;90.21;94490.00;4953721;28;20681;-69
2023/12/13 03:27:21;;;;;;;0.67;0.67;;;;;;;5.72;89.95;94498.03;4954596;28;20198;-69
2023/12/13 03:29:48;;;;;;;0.70;0.70;;;;;;;5.59;90.33;94494.34;4954485;29;20206;-69
2023/12/13 03:32:13;;;;;;;0.50;0.50;;;;;;;5.57;90.12;94490.28;4954624;29;20171;-69
2023/12/13 03:34:39;;;;;;;0.77;0.77;;;;;;;5.68;90.35;94492.41;4954589;29;20182;-69
2023/12/13 03:37:06;;;;;;;0.40;0.40;;;;;;;5.68;89.96;94490.59;4954257;29;20535;-69
2023/12/13 03:39:34;;;;;;;0.47;0.47;;;;;;;5.65;89.84;94490.16;4954303;29;20664;-69
2023/12/13 03:42:00;;;;;;;4.07;3.50;;;;;;;5.67;90.19;94493.38;4954456;29;20268;-69
2023/12/13 03:44:26;;;;;;;1.03;1.03;;;;;;;5.65;90.29;94500.59;4954328;29;20205;-69
2023/12/13 03:46:51;;;;;;;3.90;3.70;;;;;;;5.51;90.07;94475.38;4954040;29;20265;-69
2023/12/13 03:49:17;;;;;;;3.53;3.30;;;;;;;5.66;90.13;94504.81;4953972;29;20174;-69
2023/12/13 03:51:47;;;;;;;1.90;1.70;;;;;;;5.41;89.92;94490.56;4953866;29;20623;-69
2023/12/13 03:54:14;;;;;;;0.50;0.50;;;;;;;5.47;90.68;94487.19;4953927;28;20584;-69
2023/12/13 03:56:39;;;;;;;1.17;1.17;;;;;;;5.56;90.65;94488.66;4953977;28;20175;-70
2023/12/13 03:59:05;;;;;;;1.63;1.63;;;;;;;5.57;90.63;94485.88;4953670;28;20248;-70
2023/12/13 04:01:31;;;;;;;1.63;1.63;;;;;;;5.41;90.68;94488.75;4953772;29;20166;-69
2023/12/13 04:03:56;;;;;;;1.37;1.37;;;;;;;5.43;91.20;94486.78;4953506;29;20179;-69
2023/12/13 04:06:21;;;;;;;7.60;6.87;;;;;;;5.49;91.12;94478.19;4953239;29;20178;-70
2023/12/13 04:08:47;;;;;;;0.50;0.50;;;;;;;5.53;91.00;94476.81;4951535;28;20175;-69
2023/12/13 04:11:12;;;;;;;3.63;3.43;;;;;;;5.60;91.06;94472.47;4952928;28;20170;-70
2023/12/13 04:13:38;;;;;;;10.67;9.93;;;;;;;5.55;90.95;94446.09;4952756;28;20240;-69
2023/12/13 04:16:04;;;;;;;2.30;2.20;;;;;;;5.60;90.94;94467.25;4952570;28;20248;-70
2023/12/13 04:18:29;;;;;;;11.00;10.07;;;;;;;5.59;91.06;94465.63;4953253;28;20288;-70
2023/12/13 04:20:55;;;;;;;2.30;2.20;;;;;;;5.64;91.09;94459.81;4953121;28;20217;-70
2023/12/13 04:23:20;;;;;;;0.80;0.80;;;;;;;5.65;91.06;94456.22;4953335;28;20178;-70
2023/12/13 04:25:46;;;;;;;2.90;2.73;;;;;;;5.66;91.14;94439.56;4953675;29;20206;-70
2023/12/13 04:28:11;;;;;;;18.13;16.60;;;;;;;5.71;91.65;94436.38;4953294;29;20194;-69
2023/12/13 04:30:36;;;;;;;1.13;1.13;;;;;;;5.76;91.21;94439.22;4952785;28;20241;-70
2023/12/13 04:33:02;;;;;;;9.50;8.63;;;;;;;5.77;91.17;94431.19;4952729;28;20236;-70
2023/12/13 04:35:28;;;;;;;0.90;0.90;;;;;;;5.78;90.85;94430.19;4952853;28;20190;-70
2023/12/13 04:37:54;;;;;;;8.43;1.73;;;;;;;5.76;90.77;94436.59;4952753;28;20249;-70
2023/12/13 04:40:19;;;;;;;6.17;2.93;;;;;;;5.79;90.45;94437.03;4953053;29;20664;-69
2023/12/13 04:42:45;;;;;;;32.17;5.50;;;;;;;5.80;90.48;94435.22;4951506;28;20189;-69
2023/12/13 04:45:10;;;;;;;1.07;1.07;;;;;;;5.78;90.23;94432.00;4952703;28;20186;-69
2023/12/13 04:47:35;;;;;;;1.83;1.73;;;;;;;5.77;90.35;94438.22;4952524;28;20166;-69
2023/12/13 04:50:01;;;;;;;0.40;0.40;;;;;;;5.77;90.13;94427.78;4952636;29;20209;-71
2023/12/13 04:52:26;;;;;;;0.70;0.70;;;;;;;5.80;90.47;94424.75;4952689;28;20222;-67
2023/12/13 04:54:52;;;;;;;5.10;4.83;;;;;;;5.64;90.20;94400.56;4952520;28;20178;-68
2023/12/13 04:57:17;;;;;;;0.50;0.50;;;;;;;5.76;90.03;94431.38;4952200;29;20236;-68
2023/12/13 04:59:43;;;;;;;0.40;0.40;;;;;;;5.68;90.20;94425.31;4952157;28;20596;-68
2023/12/13 05:02:08;;;;;;;4.13;3.83;;;;;;;5.68;90.27;94419.28;4952670;28;20251;-69
2023/12/13 05:04:34;;;;;;;4.10;3.80;;;;;;;5.68;90.08;94427.13;4952403;29;20656;-68
2023/12/13 05:06:59;;;;;;;11.43;3.13;;;;;;;5.70;89.87;94417.31;4952268;28;20243;-68
2023/12/13 05:09:25;;;;;;;3.90;3.60;;;;;;;5.69;90.13;94416.50;4952140;29;20170;-68
2023/12/13 05:11:50;;;;;;;2.20;1.50;;;;;;;5.67;89.74;94407.22;4951970;28;20182;-68
2023/12/13 05:14:15;;;;;;;0.97;0.97;;;;;;;5.62;89.47;94413.00;4952166;28;20261;-69
2023/12/13 05:16:41;;;;;;;3.53;3.33;;;;;;;5.48;89.84;94407.91;4951827;29;20602;-67
2023/12/13 05:19:06;;;;;;;2.10;2.00;;;;;;;5.49;89.76;94418.16;4952038;28;20206;-69
2023/12/13 05:21:32;;;;;;;1.10;1.10;;;;;;;5.46;90.18;94413.31;4952030;29;20253;-67
2023/12/13 05:23:57;;;;;;;1.17;1.17;;;;;;;5.48;90.40;94423.56;4952092;28;20189;-67
2023/12/13 05:26:23;;;;;;;5.43;4.90;;;;;;;5.39;90.32;94407.25;4952127;28;20257;-69
2023/12/13 05:28:48;;;;;;;9.73;9.00;;;;;;;5.37;90.46;94403.19;4952080;29;20547;-67
2023/12/13 05:31:18;;;;;;;0.90;0.80;;;;;;;5.35;90.82;94403.41;4952062;28;20178;-68
2023/12/13 05:33:44;;;;;;;0.97;0.97;;;;;;;5.28;91.07;94395.50;4952257;28;20170;-69
2023/12/13 05:36:09;;;;;;;19.00;12.40;;;;;;;5.48;91.08;94408.72;4952061;29;20253;-67
2023/12/13 05:38:35;;;;;;;0.50;0.50;;;;;;;5.35;91.09;94403.41;4952012;29;20198;-67
2023/12/13 05:41:00;;;;;;;1.63;1.57;;;;;;;5.38;91.45;94392.56;4952367;28;20178;-67
2023/12/13 05:43:26;;;;;;;0.40;0.40;;;;;;;5.45;91.12;94423.97;4952200;28;20280;-69
2023/12/13 05:45:52;;;;;;;0.70;0.70;;;;;;;5.47;90.97;94438.41;4952331;29;20174;-69
2023/12/13 05:48:18;;;;;;;2.40;2.30;;;;;;;5.52;90.67;94436.06;4954876;28;20181;-69
2023/12/13 05:50:43;;;;;;;1.17;1.17;;;;;;;5.51;90.52;94431.84;4956327;28;20176;-70
2023/12/13 05:53:09;;;;;;;1.53;1.47;;;;;;;5.57;90.52;94425.84;4954940;29;20265;-70
2023/12/13 05:55:34;;;;;;;4.87;3.93;;;;;;;5.62;90.28;94427.88;4956183;29;20174;-70
2023/12/13 05:58:00;;;;;;;1.80;1.80;;;;;;;5.50;90.22;94404.09;4955813;29;20196;-70
2023/12/13 06:00:25;;;;;;;9.97;6.33;;;;;;;5.54;90.56;94412.34;4954946;29;20175;-68
2023/12/13 06:02:51;;;;;;;0.50;0.50;;;;;;;5.56;91.21;94403.34;4955617;29;20166;-68
2023/12/13 06:05:17;;;;;;;1.90;1.80;;;;;;;5.57;91.85;94398.94;4955519;29;20185;-68
2023/12/13 06:07:44;;;;;;;4.70;4.33;;;;;;;5.60;92.04;94391.53;4948256;28;20739;-70
2023/12/13 06:10:09;;;;;;;1.20;1.20;;;;;;;5.66;92.26;94392.56;4955251;28;20177;-68
2023/12/13 06:12:35;;;;;;;2.53;2.43;;;;;;;5.72;92.01;94390.97;4955635;28;20627;-68
2023/12/13 06:15:00;;;;;;;2.63;2.53;;;;;;;5.83;91.85;94391.25;4955420;28;20174;-68
2023/12/13 06:17:26;;;;;;;2.30;2.20;;;;;;;5.91;91.78;94404.19;4955375;28;20288;-69
2023/12/13 06:19:51;;;;;;;1.13;1.13;;;;;;;6.01;91.34;94391.56;4939424;28;20661;-68
2023/12/13 06:22:17;;;;;;;3.57;3.37;;;;;;;6.00;90.87;94410.03;4936289;29;20171;-68
2023/12/13 06:24:42;;;;;;;1.73;1.70;;;;;;;5.92;91.33;94386.69;4936326;29;20561;-68
2023/12/13 06:27:08;;;;;;;33.13;30.20;;;;;;;5.96;91.96;94378.31;4936184;29;20175;-68
2023/12/13 06:29:33;;;;;;;2.70;2.50;;;;;;;6.07;91.45;94369.88;4936340;29;20597;-68
2023/12/13 06:31:59;;;;;;;1.53;1.53;;;;;;;6.09;91.35;94372.31;4936095;29;20203;-68
2023/12/13 06:34:24;;;;;;;14.63;5.30;;;;;;;6.13;91.14;94376.16;4936235;29;20191;-67
2023/12/13 06:36:50;;;;;;;5.87;5.37;;;;;;;6.01;91.35;94367.25;4936112;29;20174;-68
2023/12/13 06:39:15;;;;;;;2.57;2.47;;;;;;;6.24;91.44;94390.44;4949989;28;20198;-68
2023/12/13 06:41:40;;;;;;;3.70;3.50;;;;;;;6.27;91.38;94377.00;4954764;28;20258;-69
2023/12/13 06:44:07;;;;;;;6.40;5.20;;;;;;;6.40;91.33;94354.31;4955214;28;20171;-69
2023/12/13 06:46:32;;;;;;;1.77;1.77;;;;;;;6.33;90.84;94348.25;4954899;28;20174;-69
2023/12/13 06:48:58;;;;;;;1.27;1.27;;;;;;;6.52;90.39;94356.34;4955076;28;20230;-69
2023/12/13 06:51:23;;;;;;;3.07;2.87;;;;;;;6.57;90.97;94359.19;4955013;28;20176;-67
2023/12/13 06:53:50;;;;;;;1.60;1.60;;;;;;;6.54;90.68;94338.66;4954967;28;20178;-69
2023/12/13 06:56:15;;;;;;;0.50;0.50;;;;;;;6.63;90.58;94340.09;4954948;28;20171;-70
2023/12/13 06:58:41;;;;;;;2.80;2.70;;;;;;;6.74;90.84;94358.63;4953569;28;20256;-69
2023/12/13 07:01:06;;;;;;;17.53;3.03;;;;;;;6.88;89.76;94364.66;4954844;28;20239;-68
2023/12/13 07:03:32;;;;;;;5.90;4.20;;;;;;;6.90;89.30;94356.63;4954511;28;20218;-70
2023/12/13 07:05:57;;;;;;;0.83;0.83;;;;;;;7.05;88.37;94373.72;4954583;28;20193;-69
2023/12/13 07:08:23;;;;;;;3.47;3.33;;;;;;;6.95;88.31;94357.63;4954588;28;20572;-70
2023/12/13 07:10:48;;;;;;;2.23;2.00;;;;;;;7.19;88.12;94374.53;4954506;28;20211;-68
2023/12/13 07:13:14;;;;;;;2.13;2.00;;;;;;;7.03;87.89;94346.13;4954498;28;20175;-69
2023/12/13 07:15:41;;;;;;;1.20;1.10;;;;;;;7.29;87.66;94372.31;4953135;29;20234;-70
2023/12/13 07:18:06;;;;;;;0.40;0.40;;;;;;;7.37;87.86;94369.47;4954429;28;20676;-70
2023/12/13 07:20:32;;;;;;;1.27;1.27;;;;;;;7.57;88.15;94369.47;4954507;28;20306;-69
2023/12/13 07:22:58;;;;;;;2.87;2.67;;;;;;;7.67;87.11;94350.72;4954301;28;20175;-69
2023/12/13 07:25:23;;;;;;;0.83;0.83;;;;;;;7.89;86.54;94346.81;4954262;28;20182;-69
2023/12/13 07:27:48;;;;;;;3.87;3.63;;;;;;;8.10;86.65;94358.84;4954213;28;20699;-69
2023/12/13 07:30:14;;;;;;;2.43;2.23;;;;;;;8.35;85.75;94369.44;4954143;28;20175;-69
2023/12/13 07:32:41;;;;;;;0.30;0.30;;;;;;;8.64;84.59;94361.84;4954304;29;20178;-69
2023/12/13 07:35:07;;;;;;;0.70;0.70;;;;;;;8.78;83.08;94357.31;4954211;28;20170;-69
2023/12/13 07:37:33;;;;;;;13.73;5.80;;;;;;;8.74;82.28;94356.09;4954225;28;20214;-69
2023/12/13 07:39:58;;;;;;;0.50;0.50;;;;;;;8.54;81.79;94364.13;4954043;28;20167;-69
2023/12/13 07:42:24;;;;;;;6.13;3.87;;;;;;;8.52;81.78;94366.13;4953897;28;20610;-69
2023/12/13 07:44:49;;;;;;;1.90;1.83;;;;;;;8.39;82.28;94342.59;4947141;28;20205;-68
2023/12/13 07:47:15;;;;;;;2.63;1.67;;;;;;;8.32;81.60;94347.88;4953843;28;20214;-68
2023/12/13 07:49:40;;;;;;;2.60;2.50;;;;;;;8.43;82.41;94348.22;4936999;28;20186;-69
2023/12/13 07:52:06;;;;;;;0.50;0.50;;;;;;;8.54;81.84;94356.25;4934590;29;20217;-69
2023/12/13 07:54:32;;;;;;;14.63;5.17;;;;;;;8.55;81.20;94357.88;4934683;29;20234;-69
2023/12/13 07:56:58;;;;;;;0.93;0.93;;;;;;;8.71;81.03;94369.66;4934554;29;20175;-69
2023/12/13 07:59:23;;;;;;;2.00;1.90;;;;;;;8.86;81.22;94374.63;4940588;29;20200;-69
2023/12/13 08:01:50;;;;;;;0.90;0.90;;;;;;;8.96;80.58;94381.00;4959357;28;20189;-69
2023/12/13 08:04:16;;;;;;;0.80;0.80;;;;;;;8.96;80.22;94375.75;4973042;28;20193;-69
2023/12/13 08:06:43;;;;;;;0.40;0.40;;;;;;;8.90;79.32;94357.44;4972850;28;20644;-69
2023/12/13 08:09:09;;;;;;;0.30;0.30;;;;;;;8.97;79.82;94360.81;4972816;28;20556;-70
2023/12/13 08:11:36;;;;;;;0.43;0.43;;;;;;;9.13;79.85;94372.63;4972121;28;20236;-70
2023/12/13 08:14:03;;;;;;;1.27;1.17;;;;;;;8.96;79.03;94348.72;4972704;28;20235;-70
2023/12/13 08:16:28;;;;;;;0.40;0.40;;;;;;;9.08;78.86;94352.25;4971144;28;20226;-69
2023/12/13 08:18:54;;;;;;;0.50;0.50;;;;;;;9.03;79.02;94345.00;4972387;28;20810;-70
2023/12/13 08:21:21;;;;;;;1.23;1.23;;;;;;;9.00;78.63;94339.38;4972617;28;20174;-70
2023/12/13 08:23:46;;;;;;;0.40;0.40;;;;;;;8.86;78.82;94348.38;4962198;28;20269;-69
2023/12/13 08:26:12;;;;;;;0.70;0.70;;;;;;;8.87;79.32;94340.28;4954473;28;20269;-69
2023/12/13 08:28:38;;;;;;;3.10;1.40;;;;;;;8.84;78.25;94348.59;4966190;28;20159;-68
2023/12/13 08:31:04;;;;;;;0.63;0.63;;;;;;;8.81;78.31;94348.22;4960663;28;20659;-70
2023/12/13 08:33:31;;;;;;;1.10;1.00;;;;;;;8.80;79.03;94342.16;4970663;28;20248;-70
2023/12/13 08:35:58;;;;;;;1.23;1.23;;;;;;;8.75;79.10;94346.41;4955443;28;20728;-70
2023/12/13 08:38:24;;;;;;;2.83;2.73;;;;;;;8.85;78.31;94357.25;4966498;28;20188;-70
2023/12/13 08:40:50;;;;;;;9.50;9.07;;;;;;;8.86;78.53;94369.38;4969122;28;20268;-69
2023/12/13 08:43:15;;;;;;;0.43;0.43;;;;;;;8.89;78.40;94369.75;4960275;28;20245;-70
2023/12/13 08:45:41;;;;;;;0.40;0.40;;;;;;;8.86;77.74;94364.13;4952700;28;20261;-69
2023/12/13 08:48:07;;;;;;;0.57;0.57;;;;;;;8.86;77.96;94366.75;4967025;28;20174;-69
2023/12/13 08:50:33;;;;;;;1.80;1.70;;;;;;;8.82;78.30;94368.19;4957094;28;20170;-68
2023/12/13 08:52:58;;;;;;;0.40;0.40;;;;;;;8.79;78.24;94368.59;4961732;28;20591;-68
2023/12/13 08:55:24;;;;;;;0.40;0.40;;;;;;;8.82;78.54;94362.94;4962996;28;20180;-69
2023/12/13 08:57:50;;;;;;;0.40;0.40;;;;;;;8.82;78.06;94371.59;4955877;28;20641;-70
2023/12/13 09:00:15;;;;;;;0.40;0.40;;;;;;;8.76;78.28;94375.06;4964737;28;20179;-70
2023/12/13 09:02:41;;;;;;;0.53;0.53;;;;;;;8.72;78.71;94367.84;4959023;28;20178;-69
2023/12/13 09:05:07;;;;;;;0.43;0.43;;;;;;;8.92;80.03;94366.69;4960846;28;20178;-70
2023/12/13 09:07:32;;;;;;;0.70;0.70;;;;;;;8.95;79.03;94347.91;4962307;28;20174;-68
2023/12/13 09:09:58;;;;;;;2.63;1.13;;;;;;;8.93;77.72;94351.75;4954522;28;20170;-68
2023/12/13 09:12:25;;;;;;;7.83;7.17;;;;;;;9.03;78.02;94347.63;4967049;28;20178;-70
2023/12/13 09:14:50;;;;;;;0.37;0.37;;;;;;;9.13;77.99;94328.78;4957305;28;20895;-70
2023/12/13 09:17:16;;;;;;;2.83;1.53;;;;;;;9.31;77.39;94334.09;4959388;28;20226;-69
2023/12/13 09:19:41;;;;;;;0.73;0.73;;;;;;;9.49;77.44;94308.88;4965345;28;20252;-69
2023/12/13 09:22:06;;;;;;;0.50;0.50;;;;;;;9.56;76.06;94291.22;4951939;28;20218;-70
2023/12/13 09:24:32;;;;;;;0.53;0.53;;;;;;;9.96;76.54;94316.03;4964571;28;20233;-69
2023/12/13 09:26:58;;;;;;;1.53;1.43;;;;;;;10.36;75.73;94305.88;4959509;28;20722;-70
2023/12/13 09:29:23;;;;;;;0.60;0.60;;;;;;;10.71;73.51;94294.66;4956920;28;20198;-69
2023/12/13 09:31:49;;;;;;;6.33;2.17;;;;;;;11.08;72.07;94316.34;4966451;28;20205;-70
2023/12/13 09:34:14;;;;;;;0.70;0.70;;;;;;;11.38;72.81;94311.00;4954365;28;20196;-70
2023/12/13 09:36:40;;;;;;;0.90;0.90;;;;;;;11.63;70.77;94315.00;4962845;28;20674;-71
2023/12/13 09:39:06;;;;;;;1.50;1.50;;;;;;;11.75;69.47;94340.59;4960319;28;20610;-70
2023/12/13 09:41:42;;;;;;;0.67;0.67;;;;;;;11.77;68.96;94333.25;4957333;28;20524;-70
2023/12/13 09:44:09;;;;;;;2.40;2.20;;;;;;;11.73;69.84;94312.59;4966083;28;20191;-69
2023/12/13 09:46:37;;;;;;;0.90;0.90;;;;;;;11.78;69.02;94290.03;4957074;28;20584;-69
2023/12/13 09:49:02;;;;;;;0.50;0.50;;;;;;;11.79;68.71;94294.25;4958382;28;20179;-69
2023/12/13 09:51:30;;;;;;;6.73;3.07;;;;;;;11.97;68.28;94304.66;4957641;28;20670;-69
2023/12/13 09:53:58;;;;;;;17.57;6.83;;;;;;;11.97;67.41;94302.03;4966630;28;20261;-69
2023/12/13 09:56:23;;;;;;;0.60;0.60;;;;;;;11.83;67.28;94279.59;4952897;28;20612;-70
2023/12/13 09:58:49;;;;;;;0.87;0.87;;;;;;;11.76;67.78;94271.81;4964737;28;20213;-69
2023/12/13 10:01:16;;;;;;;4.50;4.20;;;;;;;11.71;67.67;94267.19;4960692;28;20290;-69
2023/12/13 10:03:42;;;;;;;0.73;0.73;;;;;;;11.69;66.68;94287.72;4965229;28;20260;-69
2023/12/13 10:06:08;;;;;;;1.17;1.17;;;;;;;11.45;66.99;94267.69;4953101;28;20190;-69
2023/12/13 10:08:35;;;;;;;0.53;0.53;;;;;;;11.19;67.53;94249.72;4964901;28;20273;-69
2023/12/13 10:11:06;;;;;;;0.50;0.50;;;;;;;11.15;68.71;94251.22;4958787;28;20189;-70
2023/12/13 10:13:34;;;;;;;7.00;2.50;;;;;;;11.21;69.06;94252.91;4970822;28;20181;-68
2023/12/13 10:16:13;;;;;;;0.60;0.60;;;;;;;11.31;69.17;94247.88;4962470;28;20217;-70
2023/12/13 10:18:41;;;;;;;3.93;2.47;;;;;;;11.33;68.48;94230.78;4950989;28;20194;-69
2023/12/13 10:21:08;;;;;;;0.60;0.60;;;;;;;11.20;68.31;94225.78;4951240;28;20178;-68
2023/12/13 10:23:35;;;;;;;1.17;1.07;;;;;;;11.07;68.75;94226.00;4950849;28;20187;-68
2023/12/13 10:26:02;;;;;;;1.27;1.27;;;;;;;11.03;69.38;94216.97;4950964;28;20175;-70
2023/12/13 10:28:28;;;;;;;1.17;1.17;;;;;;;10.98;69.07;94207.09;4960305;28;20169;-70
2023/12/13 10:30:54;;;;;;;18.93;7.97;;;;;;;10.98;69.33;94188.66;4952145;28;20663;-70
2023/12/13 10:33:19;;;;;;;0.70;0.70;;;;;;;10.87;69.96;94200.03;4952047;28;20186;-69
2023/12/13 10:35:47;;;;;;;1.73;1.67;;;;;;;10.87;70.00;94199.22;4954617;29;20644;-70
2023/12/13 10:38:15;;;;;;;4.13;2.70;;;;;;;10.76;70.59;94194.72;4954459;28;20213;-69
2023/12/13 10:40:42;;;;;;;0.53;0.53;;;;;;;10.63;71.13;94198.41;4954653;28;20171;-69
2023/12/13 10:43:10;;;;;;;1.67;1.63;;;;;;;10.50;71.48;94165.19;4954561;28;20174;-69
2023/12/13 10:45:43;;;;;;;0.50;0.50;;;;;;;10.68;71.21;94197.69;4954830;28;20172;-69
2023/12/13 10:48:08;;;;;;;0.30;0.30;;;;;;;10.71;71.33;94198.06;4954193;28;20313;-69
2023/12/13 10:50:38;;;;;;;0.60;0.60;;;;;;;10.82;70.90;94197.25;4954558;28;20289;-69
2023/12/13 10:53:04;;;;;;;6.33;2.20;;;;;;;10.81;71.09;94185.13;4954396;28;20559;-69
2023/12/13 10:55:30;;;;;;;3.73;3.57;;;;;;;10.63;70.95;94169.44;4954678;28;20695;-69
2023/12/13 10:57:56;;;;;;;0.83;0.83;;;;;;;10.76;71.51;94187.63;4954099;28;20194;-70
2023/12/13 11:00:25;;;;;;;0.50;0.50;;;;;;;10.75;71.85;94185.22;4954825;28;20229;-69
2023/12/13 11:03:02;;;;;;;0.50;0.50;;;;;;;10.80;71.97;94162.47;4954354;28;20237;-69
2023/12/13 11:05:27;;;;;;;0.40;0.40;;;;;;;10.83;72.28;94177.00;4956378;28;20682;-69
2023/12/13 11:07:53;;;;;;;0.50;0.50;;;;;;;10.85;73.01;94167.84;4956236;29;20253;-69
2023/12/13 11:10:18;;;;;;;11.03;4.03;;;;;;;10.84;71.84;94139.09;4953677;28;20704;-69
2023/12/13 11:12:49;;;;;;;2.40;2.30;;;;;;;11.00;71.61;94156.03;4953917;28;20182;-68
2023/12/13 11:15:15;;;;;;;0.40;0.40;;;;;;;11.04;71.82;94160.63;4953677;28;20179;-69
2023/12/13 11:17:44;;;;;;;1.70;1.03;;;;;;;11.08;72.29;94147.78;4953790;28;20254;-69
2023/12/13 11:20:10;;;;;;;1.67;1.67;;;;;;;11.11;71.71;94153.41;4954024;28;20186;-68
2023/12/13 11:22:35;;;;;;;1.60;1.57;;;;;;;10.98;71.67;94137.06;4953738;28;20179;-68
2023/12/13 11:25:06;;;;;;;2.00;1.90;;;;;;;11.22;74.95;94118.34;4954092;29;20637;-68
2023/12/13 11:27:32;;;;;;;0.50;0.50;;;;;;;11.48;71.28;94158.38;4953116;28;20194;-69
2023/12/13 11:29:58;;;;;;;0.30;0.30;;;;;;;11.42;70.55;94146.09;4954510;29;20264;-69
2023/12/13 11:32:33;;;;;;;1.63;1.63;;;;;;;11.50;72.07;94138.63;4954045;28;20222;-69